Time;durP1;ratioP1;P1;durP2;ratioP2;P2;SDS_P1;SDS_P2;PMS_P1;PMS_P2;Temp;Humidity;BMP_temperature;BMP_pressure;BME280_temperature;BME280_humidity;BME280_pressure;Samples;Min_cycle;Max_cycle;Signal;HPM_P1;HPM_P2
2022/01/11 00:00:37;;;;;;;3.57;2.80;;;19.40;45.60;;;;;;5076830;28;20240;-24
2022/01/11 00:03:05;;;;;;;3.03;2.73;;;19.40;45.60;;;;;;5065256;28;20511;-24
2022/01/11 00:07:59;;;;;;;3.40;2.73;;;19.40;45.60;;;;;;5077115;28;20178;-23
2022/01/11 00:10:29;;;;;;;3.30;3.00;;;19.30;45.60;;;;;;5076017;28;20183;-25
2022/01/11 00:13:00;;;;;;;3.73;2.93;;;19.30;45.60;;;;;;5072468;28;20172;-22
2022/01/11 00:15:27;;;;;;;3.13;2.70;;;19.20;45.60;;;;;;5072322;28;20172;-24
2022/01/11 00:17:53;;;;;;;2.83;2.50;;;19.20;45.60;;;;;;5055704;28;20206;-23
2022/01/11 00:20:20;;;;;;;3.10;2.80;;;19.20;45.60;;;;;;5078769;28;20184;-22
2022/01/11 00:25:46;;;;;;;3.03;2.70;;;19.20;45.60;;;;;;5027805;28;20278;-25
2022/01/11 00:28:14;;;;;;;3.57;2.63;;;19.20;45.60;;;;;;5101183;28;20250;-23
2022/01/11 00:30:42;;;;;;;3.03;2.73;;;19.30;45.60;;;;;;5081619;28;20179;-23
2022/01/11 00:33:13;;;;;;;3.10;2.70;;;19.20;45.50;;;;;;5078070;28;20504;-24
2022/01/11 00:35:57;;;;;;;3.40;2.80;;;19.10;45.60;;;;;;5078514;28;20180;-22
2022/01/11 00:38:25;;;;;;;3.30;2.73;;;19.10;45.70;;;;;;5079081;28;20209;-22
2022/01/11 00:40:53;;;;;;;2.80;2.50;;;19.00;45.70;;;;;;5079788;28;20447;-23
2022/01/11 00:43:22;;;;;;;3.67;2.87;;;19.10;45.70;;;;;;5079329;28;20222;-25
2022/01/11 00:45:48;;;;;;;4.13;2.63;;;19.00;45.70;;;;;;5097982;28;20189;-22
2022/01/11 00:48:14;;;;;;;2.97;2.67;;;19.00;45.70;;;;;;5085790;28;20190;-22
2022/01/11 00:50:41;;;;;;;3.20;2.70;;;19.00;45.70;;;;;;5098446;28;20200;-22
2022/01/11 00:53:09;;;;;;;3.07;2.57;;;18.90;45.70;;;;;;5100259;28;20184;-24
2022/01/11 00:55:35;;;;;;;3.37;3.00;;;18.90;45.80;;;;;;5081667;28;20185;-24
2022/01/11 00:58:02;;;;;;;2.90;2.70;;;18.80;45.80;;;;;;5081479;28;20209;-24
2022/01/11 01:00:29;;;;;;;3.20;2.50;;;18.80;45.90;;;;;;5081498;28;20210;-23
2022/01/11 01:02:55;;;;;;;3.17;2.67;;;18.80;45.80;;;;;;5099642;28;20182;-25
2022/01/11 01:05:21;;;;;;;3.03;2.70;;;18.70;45.90;;;;;;5099877;28;20451;-22
2022/01/11 01:07:49;;;;;;;2.90;2.60;;;18.70;45.90;;;;;;5082514;28;20179;-21
2022/01/11 01:10:26;;;;;;;2.77;2.57;;;18.70;45.90;;;;;;5099807;28;20171;-24
2022/01/11 01:12:53;;;;;;;2.90;2.50;;;18.60;45.90;;;;;;5082509;28;20205;-23
2022/01/11 01:15:20;;;;;;;3.13;2.70;;;18.60;46.00;;;;;;5098281;28;20231;-22
2022/01/11 01:17:50;;;;;;;3.00;2.53;;;18.50;46.10;;;;;;5068784;28;20301;-24
2022/01/11 01:20:16;;;;;;;3.27;2.60;;;18.50;46.10;;;;;;5060805;28;20210;-22
2022/01/11 01:22:42;;;;;;;2.60;2.40;;;18.40;46.20;;;;;;5061920;28;20207;-22
2022/01/11 01:25:09;;;;;;;3.37;2.57;;;18.40;46.20;;;;;;5070209;28;20179;-26
2022/01/11 01:27:35;;;;;;;3.67;2.60;;;18.30;46.20;;;;;;5087664;28;20486;-24
2022/01/11 01:30:02;;;;;;;3.47;3.10;;;18.30;46.30;;;;;;5061138;28;20287;-24
2022/01/11 01:32:28;;;;;;;3.23;2.70;;;18.20;46.30;;;;;;5060539;28;20541;-24
2022/01/11 01:34:56;;;;;;;3.00;2.70;;;18.20;46.40;;;;;;5078250;28;20206;-25
2022/01/11 01:37:25;;;;;;;2.80;2.37;;;18.10;46.40;;;;;;5061139;28;20183;-24
2022/01/11 01:39:50;;;;;;;3.87;2.60;;;18.10;46.50;;;;;;5078808;28;20172;-21
2022/01/11 01:42:26;;;;;;;3.33;2.63;;;18.10;46.50;;;;;;5079044;28;20227;-24
2022/01/11 01:44:52;;;;;;;2.53;2.27;;;18.00;46.50;;;;;;5061469;28;20208;-26
2022/01/11 01:47:18;;;;;;;2.90;2.30;;;18.00;46.60;;;;;;5061433;28;20184;-25
2022/01/11 01:49:44;;;;;;;2.40;2.20;;;17.90;46.60;;;;;;5061361;28;20272;-26
2022/01/11 01:52:10;;;;;;;2.50;2.30;;;17.90;46.70;;;;;;5079098;28;20281;-25
2022/01/11 01:54:36;;;;;;;3.10;2.63;;;17.80;46.70;;;;;;5078473;28;20169;-24
2022/01/11 01:57:03;;;;;;;2.57;2.23;;;17.80;46.80;;;;;;5060784;28;20177;-25
2022/01/11 01:59:29;;;;;;;2.87;2.40;;;17.80;46.80;;;;;;5061394;28;20207;-22
2022/01/11 02:01:55;;;;;;;3.50;2.50;;;17.80;46.80;;;;;;5061249;28;20176;-23
2022/01/11 02:04:21;;;;;;;2.63;2.30;;;18.00;46.70;;;;;;5061240;28;20501;-24
2022/01/11 02:06:47;;;;;;;3.03;2.23;;;18.20;46.40;;;;;;5077908;28;20271;-23
2022/01/11 02:09:17;;;;;;;2.47;2.27;;;18.20;46.20;;;;;;5078001;28;20169;-24
2022/01/11 02:11:47;;;;;;;2.33;2.13;;;18.20;46.20;;;;;;5085662;28;20183;-23
2022/01/11 02:14:13;;;;;;;2.40;2.20;;;18.20;46.10;;;;;;5098136;28;20183;-24
2022/01/11 02:16:39;;;;;;;3.43;2.60;;;18.20;46.20;;;;;;5098095;28;20173;-24
2022/01/11 02:19:05;;;;;;;2.80;2.40;;;18.10;46.20;;;;;;5098764;28;20204;-23
2022/01/11 02:21:38;;;;;;;2.50;2.10;;;18.10;46.20;;;;;;5079891;28;20178;-21
2022/01/11 02:24:04;;;;;;;2.60;2.40;;;18.10;46.20;;;;;;5098507;28;20169;-22
2022/01/11 02:26:30;;;;;;;2.83;2.40;;;18.10;46.20;;;;;;5099048;28;20152;-23
2022/01/11 02:28:55;;;;;;;3.20;2.10;;;18.00;46.20;;;;;;5080606;28;20203;-22
2022/01/11 02:31:22;;;;;;;2.43;2.23;;;18.00;46.30;;;;;;5078712;28;20272;-22
2022/01/11 02:33:56;;;;;;;2.37;2.10;;;18.00;46.30;;;;;;5095058;28;20417;-25
2022/01/11 02:36:26;;;;;;;2.83;2.53;;;17.90;46.30;;;;;;5096270;28;20167;-24
2022/01/11 02:38:53;;;;;;;3.33;2.50;;;17.90;46.40;;;;;;5078028;28;20197;-22
2022/01/11 02:41:19;;;;;;;2.57;2.37;;;17.80;46.40;;;;;;5078568;28;20172;-23
2022/01/11 02:43:47;;;;;;;3.30;2.33;;;17.80;46.40;;;;;;5077300;28;20625;-23
2022/01/11 02:46:15;;;;;;;2.60;2.40;;;17.80;46.40;;;;;;5095160;28;20537;-25
2022/01/11 02:48:41;;;;;;;2.47;2.27;;;17.70;46.50;;;;;;5095846;28;20217;-22
2022/01/11 02:51:08;;;;;;;2.93;2.20;;;17.70;46.50;;;;;;5095550;28;20211;-23
2022/01/11 02:53:45;;;;;;;3.10;2.40;;;17.70;46.50;;;;;;5095501;28;20178;-24
2022/01/11 02:56:12;;;;;;;3.33;2.40;;;17.60;46.50;;;;;;5095973;28;20250;-25
2022/01/11 02:58:38;;;;;;;2.50;2.30;;;17.60;46.50;;;;;;5078189;28;20200;-23
2022/01/11 03:01:05;;;;;;;2.20;2.00;;;17.50;46.50;;;;;;5095103;28;20173;-22
2022/01/11 03:03:31;;;;;;;2.60;2.20;;;17.60;46.60;;;;;;5078061;28;20163;-21
2022/01/11 03:06:03;;;;;;;3.37;2.60;;;17.80;46.50;;;;;;5094063;28;20260;-25
2022/01/11 03:08:36;;;;;;;2.87;2.00;;;18.00;46.20;;;;;;5077679;28;20239;-22
2022/01/11 03:11:05;;;;;;;2.30;1.97;;;18.10;45.90;;;;;;5093563;28;20167;-22
2022/01/11 03:13:31;;;;;;;2.60;2.40;;;18.00;45.90;;;;;;5095441;28;20633;-22
2022/01/11 03:15:57;;;;;;;2.30;2.10;;;18.00;45.90;;;;;;5088331;28;20215;-25
2022/01/11 03:18:22;;;;;;;2.83;2.30;;;17.90;45.90;;;;;;5079908;28;20596;-23
2022/01/11 03:20:50;;;;;;;2.57;2.23;;;17.90;46.00;;;;;;5097254;28;20650;-23
2022/01/11 03:23:18;;;;;;;2.33;2.10;;;17.90;46.00;;;;;;5097717;28;20168;-23
2022/01/11 03:25:45;;;;;;;2.23;2.03;;;17.80;46.00;;;;;;5097645;28;20182;-24
2022/01/11 03:28:11;;;;;;;2.27;2.03;;;17.80;46.10;;;;;;5079877;28;20176;-24
2022/01/11 03:30:37;;;;;;;2.70;2.27;;;17.70;46.10;;;;;;5096871;28;20264;-22
2022/01/11 03:33:06;;;;;;;2.40;2.20;;;17.70;46.10;;;;;;5077822;28;20187;-24
2022/01/11 03:35:32;;;;;;;2.37;2.17;;;17.70;46.10;;;;;;5077728;28;20550;-21
2022/01/11 03:37:58;;;;;;;2.30;2.10;;;17.60;46.10;;;;;;5094864;28;20223;-23
2022/01/11 03:40:25;;;;;;;2.73;2.20;;;17.50;46.20;;;;;;5095640;28;20192;-25
2022/01/11 03:42:51;;;;;;;2.97;2.27;;;17.50;46.30;;;;;;5094718;28;20168;-24
2022/01/11 03:45:21;;;;;;;2.53;2.10;;;17.40;46.30;;;;;;5076720;28;20270;-23
2022/01/11 03:47:48;;;;;;;2.43;2.23;;;17.40;46.30;;;;;;5077384;28;20185;-24
2022/01/11 03:50:14;;;;;;;2.73;2.43;;;17.40;46.30;;;;;;5095032;28;20254;-22
2022/01/11 03:52:40;;;;;;;2.87;2.00;;;17.30;46.40;;;;;;5077194;28;20295;-23
2022/01/11 03:55:12;;;;;;;2.37;2.17;;;17.30;46.50;;;;;;5097482;28;20167;-25
2022/01/11 03:57:39;;;;;;;2.10;1.90;;;17.20;46.50;;;;;;5097971;28;20214;-23
2022/01/11 04:00:10;;;;;;;2.60;2.33;;;17.10;46.60;;;;;;5079657;28;20176;-22
2022/01/11 04:02:38;;;;;;;2.50;2.30;;;17.10;46.60;;;;;;5090156;28;20347;-24
2022/01/11 04:05:04;;;;;;;2.47;2.27;;;17.00;46.70;;;;;;5063639;28;20470;-21
2022/01/11 04:07:30;;;;;;;2.50;2.23;;;17.00;46.70;;;;;;5063687;28;20172;-23
2022/01/11 04:09:57;;;;;;;2.23;2.00;;;17.80;46.50;;;;;;5081268;28;20268;-23
2022/01/11 04:12:24;;;;;;;2.80;2.00;;;21.10;43.50;;;;;;5077703;28;20166;-21
2022/01/11 04:14:50;;;;;;;2.27;1.93;;;21.70;41.50;;;;;;5078119;28;20167;-23
2022/01/11 04:17:16;;;;;;;2.30;2.10;;;21.80;41.00;;;;;;5076571;28;20336;-24
2022/01/11 04:19:42;;;;;;;2.13;1.93;;;21.80;41.00;;;;;;5078170;28;20187;-24
2022/01/11 04:22:08;;;;;;;2.87;2.10;;;22.00;40.70;;;;;;5078507;28;20171;-21
2022/01/11 04:24:34;;;;;;;3.57;1.90;;;22.40;40.40;;;;;;5077994;28;20233;-23
2022/01/11 04:26:59;;;;;;;2.40;2.10;;;22.80;40.00;;;;;;5060227;28;20215;-24
2022/01/11 04:29:25;;;;;;;2.30;2.03;;;23.20;39.60;;;;;;5059478;28;20218;-24
2022/01/11 04:31:51;;;;;;;2.33;2.13;;;23.60;39.20;;;;;;5059908;28;20346;-24
2022/01/11 04:34:16;;;;;;;1.97;1.77;;;24.00;38.80;;;;;;5077338;28;20180;-24
2022/01/11 04:36:43;;;;;;;2.47;2.13;;;24.10;38.70;;;;;;5059649;28;20217;-23
2022/01/11 04:39:11;;;;;;;2.30;2.03;;;24.20;38.50;;;;;;5059466;28;20221;-23
2022/01/11 04:41:37;;;;;;;2.07;1.87;;;24.30;38.40;;;;;;5059666;28;20176;-24
2022/01/11 04:44:04;;;;;;;2.03;1.83;;;24.60;38.20;;;;;;5079266;28;20603;-25
2022/01/11 04:46:30;;;;;;;2.10;1.90;;;24.90;38.00;;;;;;5093153;28;20187;-22
2022/01/11 04:49:00;;;;;;;2.30;2.10;;;25.10;37.80;;;;;;5062575;28;20248;-24
2022/01/11 04:51:27;;;;;;;2.40;1.90;;;25.00;37.70;;;;;;5079633;28;20186;-25
2022/01/11 04:53:53;;;;;;;2.43;2.17;;;25.10;37.70;;;;;;5062568;28;20182;-23
2022/01/11 04:56:19;;;;;;;1.87;1.77;;;25.40;37.70;;;;;;5078577;28;20180;-21
2022/01/11 04:58:45;;;;;;;3.23;1.93;;;25.60;37.50;;;;;;5059090;28;20244;-25
2022/01/11 05:01:10;;;;;;;2.23;2.00;;;25.90;37.20;;;;;;5076548;28;20233;-23
2022/01/11 05:03:36;;;;;;;2.27;2.07;;;25.90;37.20;;;;;;5076374;28;20236;-25
2022/01/11 05:06:04;;;;;;;2.53;2.00;;;25.80;37.10;;;;;;5076531;28;20175;-23
2022/01/11 05:08:31;;;;;;;1.90;1.80;;;25.60;37.10;;;;;;5059249;28;20305;-24
2022/01/11 05:10:56;;;;;;;1.90;1.80;;;25.50;37.30;;;;;;5075370;28;20440;-24
2022/01/11 05:13:22;;;;;;;2.13;1.93;;;25.20;37.40;;;;;;5076670;28;20180;-26
2022/01/11 05:15:48;;;;;;;2.10;2.00;;;25.00;37.60;;;;;;5058446;28;20312;-24
2022/01/11 05:18:14;;;;;;;2.13;1.73;;;24.70;37.80;;;;;;5076821;28;20377;-25
2022/01/11 05:20:40;;;;;;;2.17;1.97;;;24.30;38.10;;;;;;5076649;28;20552;-24
2022/01/11 05:23:07;;;;;;;2.70;2.07;;;24.00;38.30;;;;;;5076398;28;20450;-23
2022/01/11 05:25:33;;;;;;;3.00;1.80;;;23.60;38.60;;;;;;5057637;28;20175;-24
2022/01/11 05:27:59;;;;;;;2.13;1.73;;;23.30;39.00;;;;;;5074985;28;20186;-26
2022/01/11 05:30:26;;;;;;;2.23;2.03;;;22.90;39.30;;;;;;5074716;28;20266;-23
2022/01/11 05:32:52;;;;;;;3.33;2.10;;;22.60;39.60;;;;;;5056872;28;20183;-25
2022/01/11 05:35:19;;;;;;;2.50;1.83;;;22.20;39.90;;;;;;5074879;28;20461;-25
2022/01/11 05:37:46;;;;;;;2.67;1.90;;;21.90;40.60;;;;;;5056014;28;20208;-24
2022/01/11 05:40:13;;;;;;;1.90;1.80;;;21.60;40.50;;;;;;5058276;28;20167;-25
2022/01/11 05:42:40;;;;;;;2.03;1.83;;;21.30;40.80;;;;;;5099017;28;20236;-24
2022/01/11 05:45:07;;;;;;;2.40;1.70;;;20.90;41.20;;;;;;5090296;28;20186;-24
2022/01/11 05:47:34;;;;;;;1.80;1.70;;;21.00;41.40;;;;;;5077642;28;20354;-24
2022/01/11 05:50:01;;;;;;;2.07;1.80;;;21.40;41.20;;;;;;5089004;28;20177;-26
2022/01/11 05:52:27;;;;;;;2.67;1.80;;;22.00;40.60;;;;;;5081060;28;20189;-22
2022/01/11 05:54:53;;;;;;;1.97;1.77;;;23.00;40.20;;;;;;5079088;28;20601;-24
2022/01/11 05:57:21;;;;;;;2.10;1.90;;;24.30;38.80;;;;;;5077021;28;20222;-23
2022/01/11 05:59:46;;;;;;;2.00;1.80;;;24.90;37.90;;;;;;5077732;28;20285;-24
2022/01/11 06:02:12;;;;;;;1.97;1.80;;;25.00;37.60;;;;;;5077642;28;20213;-26
2022/01/11 06:04:38;;;;;;;2.23;1.80;;;25.00;37.50;;;;;;5060069;28;20172;-25
2022/01/11 06:07:04;;;;;;;2.33;1.90;;;25.40;37.50;;;;;;5076272;28;20187;-24
2022/01/11 06:09:29;;;;;;;2.40;1.80;;;25.50;37.30;;;;;;5077377;28;20163;-24
2022/01/11 06:11:56;;;;;;;3.03;1.90;;;25.50;37.20;;;;;;5076331;28;20179;-25
2022/01/11 06:14:23;;;;;;;2.47;1.80;;;25.40;37.30;;;;;;5076325;28;20178;-25
2022/01/11 06:16:49;;;;;;;2.93;1.70;;;25.50;37.30;;;;;;5076123;28;20202;-24
2022/01/11 06:19:14;;;;;;;2.83;1.87;;;25.40;37.30;;;;;;5076430;28;20509;-24
2022/01/11 06:21:40;;;;;;;3.77;1.90;;;25.30;37.40;;;;;;5088798;28;20209;-23
2022/01/11 06:24:07;;;;;;;2.60;1.90;;;25.30;37.50;;;;;;5095969;28;20174;-25
2022/01/11 06:26:33;;;;;;;3.73;2.27;;;25.00;37.50;;;;;;5070724;28;20752;-22
2022/01/11 06:29:01;;;;;;;3.87;2.30;;;24.80;37.70;;;;;;5056940;28;20175;-26
2022/01/11 06:31:27;;;;;;;4.57;2.20;;;24.50;38.00;;;;;;5057962;28;20249;-26
2022/01/11 06:33:54;;;;;;;5.10;2.40;;;24.10;38.30;;;;;;5076672;28;20392;-22
2022/01/11 06:36:20;;;;;;;5.80;2.30;;;23.70;38.70;;;;;;5076095;28;20182;-26
2022/01/11 06:38:46;;;;;;;4.37;2.47;;;23.30;39.10;;;;;;5076084;28;20558;-24
2022/01/11 06:41:12;;;;;;;6.70;2.37;;;22.90;39.40;;;;;;5058658;28;20174;-23
2022/01/11 06:43:40;;;;;;;6.50;3.07;;;22.60;39.80;;;;;;5075655;28;20184;-22
2022/01/11 06:46:06;;;;;;;5.00;2.67;;;22.30;40.10;;;;;;5071599;28;20165;-24
2022/01/11 06:48:32;;;;;;;5.27;2.33;;;22.00;40.30;;;;;;5052180;28;20237;-23
2022/01/11 06:50:58;;;;;;;6.00;2.40;;;21.70;40.50;;;;;;5069177;28;20358;-24
2022/01/11 06:53:24;;;;;;;7.27;2.93;;;21.60;40.80;;;;;;5068651;28;20176;-23
2022/01/11 06:55:53;;;;;;;7.93;2.67;;;21.50;41.40;;;;;;5050600;28;20282;-24
2022/01/11 06:58:19;;;;;;;4.47;2.43;;;21.40;41.10;;;;;;5051588;28;20213;-24
2022/01/11 07:00:44;;;;;;;6.40;2.50;;;21.60;41.00;;;;;;5052086;28;20179;-23
2022/01/11 07:03:12;;;;;;;4.93;2.60;;;22.00;40.70;;;;;;5051267;28;20522;-24
2022/01/11 07:05:37;;;;;;;8.00;2.77;;;22.40;40.10;;;;;;5052034;28;20181;-21
2022/01/11 07:08:04;;;;;;;6.70;2.47;;;22.80;39.70;;;;;;5066128;28;20448;-24
2022/01/11 07:10:30;;;;;;;5.57;3.00;;;23.30;39.30;;;;;;5068752;28;20246;-24
2022/01/11 07:12:57;;;;;;;3.97;2.10;;;23.80;38.90;;;;;;5070836;28;20191;-24
2022/01/11 07:15:23;;;;;;;4.83;2.40;;;24.10;38.50;;;;;;5070017;28;20167;-22
2022/01/11 07:17:49;;;;;;;7.73;2.63;;;24.50;38.20;;;;;;5068165;28;20588;-23
2022/01/11 07:20:15;;;;;;;5.40;2.87;;;24.70;37.90;;;;;;5067433;28;20179;-24
2022/01/11 07:22:41;;;;;;;5.77;2.60;;;25.00;37.70;;;;;;5067851;28;20189;-25
2022/01/11 07:25:07;;;;;;;6.40;2.47;;;25.10;37.50;;;;;;5070833;28;20189;-22
2022/01/11 07:27:34;;;;;;;4.87;2.50;;;25.30;37.50;;;;;;5070222;28;20279;-24
2022/01/11 07:30:00;;;;;;;5.47;2.70;;;25.50;37.40;;;;;;5053530;28;20675;-22
2022/01/11 07:32:26;;;;;;;5.37;2.60;;;25.40;37.30;;;;;;5055001;28;20170;-24
2022/01/11 07:34:52;;;;;;;5.83;2.90;;;25.20;37.40;;;;;;5072872;28;20175;-26
2022/01/11 07:37:18;;;;;;;5.10;2.30;;;25.10;37.50;;;;;;5072929;28;20582;-24
2022/01/11 07:39:44;;;;;;;5.50;2.30;;;25.00;37.60;;;;;;5073348;28;20237;-24
2022/01/11 07:42:10;;;;;;;3.67;2.20;;;24.80;37.70;;;;;;5072393;28;20167;-24
2022/01/11 07:44:35;;;;;;;5.37;2.40;;;24.70;37.90;;;;;;5073484;28;20220;-25
2022/01/11 07:47:04;;;;;;;5.80;2.70;;;24.60;38.00;;;;;;5056088;28;20175;-27
2022/01/11 07:49:30;;;;;;;5.43;2.40;;;24.30;38.20;;;;;;5073528;28;20179;-23
2022/01/11 07:51:56;;;;;;;5.77;2.60;;;24.00;38.30;;;;;;5072911;28;20187;-24
2022/01/11 07:54:21;;;;;;;4.63;2.27;;;23.80;38.60;;;;;;5072926;28;20308;-27
2022/01/11 07:56:47;;;;;;;4.30;2.60;;;23.60;38.80;;;;;;5072698;28;20176;-24
2022/01/11 07:59:13;;;;;;;4.13;2.63;;;23.50;38.90;;;;;;5071401;28;20210;-26
2022/01/11 08:01:39;;;;;;;4.13;2.63;;;23.30;39.10;;;;;;5072324;28;20178;-24
2022/01/11 08:04:05;;;;;;;4.87;2.50;;;23.00;39.20;;;;;;5071938;28;20206;-23
2022/01/11 08:06:33;;;;;;;4.10;2.40;;;22.70;39.50;;;;;;5071343;28;20360;-22
2022/01/11 08:09:00;;;;;;;3.63;2.40;;;22.30;39.80;;;;;;5054496;28;20171;-26
2022/01/11 08:11:26;;;;;;;3.70;2.50;;;22.00;40.20;;;;;;5054970;28;20468;-24
2022/01/11 08:13:52;;;;;;;3.27;2.27;;;21.70;40.50;;;;;;5071843;28;20209;-24
2022/01/11 08:16:17;;;;;;;4.93;2.20;;;21.40;40.80;;;;;;5071881;28;20576;-24
2022/01/11 08:18:43;;;;;;;3.67;2.30;;;21.30;40.90;;;;;;5055504;28;20266;-24
2022/01/11 08:21:09;;;;;;;4.07;2.30;;;21.80;40.70;;;;;;5095082;28;20176;-24
2022/01/11 08:23:35;;;;;;;3.67;2.47;;;22.80;40.30;;;;;;5099009;28;20168;-24
2022/01/11 08:26:01;;;;;;;3.87;2.37;;;23.90;38.90;;;;;;5062990;28;20191;-23
2022/01/11 08:28:27;;;;;;;3.20;2.17;;;24.40;38.20;;;;;;5087107;28;20176;-24
2022/01/11 08:30:53;;;;;;;3.80;2.17;;;24.60;37.90;;;;;;5098584;28;20179;-25
2022/01/11 08:33:19;;;;;;;4.63;2.20;;;24.70;37.70;;;;;;5091549;28;20258;-26
2022/01/11 08:35:45;;;;;;;3.43;2.37;;;25.00;37.50;;;;;;5080335;28;20277;-24
2022/01/11 08:38:11;;;;;;;5.00;2.73;;;25.30;37.20;;;;;;5098297;28;20289;-24
2022/01/11 08:40:37;;;;;;;4.47;2.30;;;25.40;37.20;;;;;;5097818;28;20191;-25
2022/01/11 08:43:04;;;;;;;4.07;2.33;;;25.40;37.10;;;;;;5090410;28;20547;-24
2022/01/11 08:45:31;;;;;;;3.17;2.13;;;25.60;37.00;;;;;;5097477;28;20177;-26
2022/01/11 08:47:57;;;;;;;5.17;2.30;;;25.60;37.00;;;;;;5097967;28;20200;-23
2022/01/11 08:50:23;;;;;;;2.30;2.10;;;25.80;36.90;;;;;;5080697;28;20190;-24
2022/01/11 08:52:50;;;;;;;3.53;2.10;;;25.70;36.80;;;;;;5079817;28;20179;-25
2022/01/11 08:55:16;;;;;;;3.20;2.30;;;25.50;37.00;;;;;;5096513;28;20170;-23
2022/01/11 08:57:42;;;;;;;2.93;2.33;;;25.20;37.10;;;;;;5080139;28;20193;-26
2022/01/11 09:00:16;;;;;;;5.13;2.33;;;25.10;37.30;;;;;;5078524;28;20426;-26
2022/01/11 09:02:46;;;;;;;3.50;2.20;;;25.00;37.30;;;;;;5081956;28;20170;-27
2022/01/11 09:05:12;;;;;;;5.70;2.37;;;24.80;37.40;;;;;;5080860;28;20269;-25
2022/01/11 09:07:40;;;;;;;3.73;2.20;;;24.60;37.60;;;;;;5078314;28;20176;-24
2022/01/11 09:10:07;;;;;;;2.90;2.20;;;24.30;37.90;;;;;;5077889;28;20148;-24
2022/01/11 09:12:33;;;;;;;3.37;2.20;;;23.90;38.20;;;;;;5077728;28;20246;-23
2022/01/11 09:14:58;;;;;;;2.43;2.17;;;23.60;38.60;;;;;;5058600;28;20576;-24
2022/01/11 09:17:26;;;;;;;3.23;2.20;;;23.20;38.90;;;;;;5059346;28;20237;-23
2022/01/11 09:19:52;;;;;;;3.17;2.03;;;23.00;39.20;;;;;;5080308;28;20742;-24
2022/01/11 09:22:18;;;;;;;3.50;2.33;;;22.80;39.40;;;;;;5097151;28;20603;-25
2022/01/11 09:24:43;;;;;;;4.73;2.53;;;22.70;39.50;;;;;;5080020;28;20167;-23
2022/01/11 09:27:11;;;;;;;17.83;16.73;;;22.80;39.60;;;;;;5093131;28;20185;-23
2022/01/11 09:29:37;;;;;;;52.73;50.27;;;23.00;39.40;;;;;;5097591;28;20151;-23
2022/01/11 09:32:05;;;;;;;35.40;33.60;;;23.40;39.20;;;;;;5084242;28;20603;-24
2022/01/11 09:34:31;;;;;;;3.77;2.47;;;23.80;38.80;;;;;;5076627;28;20175;-25
2022/01/11 09:36:57;;;;;;;4.70;2.30;;;24.30;38.40;;;;;;5077485;28;20530;-25
2022/01/11 09:39:23;;;;;;;2.83;2.10;;;24.80;37.90;;;;;;5059662;28;20211;-22
2022/01/11 09:41:50;;;;;;;2.73;2.27;;;25.50;37.40;;;;;;5088703;28;20695;-25
2022/01/11 09:44:16;;;;;;;2.53;2.10;;;25.80;37.10;;;;;;5076200;28;20270;-26
2022/01/11 09:46:42;;;;;;;5.47;2.30;;;26.00;36.90;;;;;;5076973;28;20215;-22
2022/01/11 09:49:08;;;;;;;2.60;2.10;;;26.20;36.80;;;;;;5077510;28;20204;-25
2022/01/11 09:51:36;;;;;;;2.20;1.90;;;26.30;36.70;;;;;;5058758;28;20218;-25
2022/01/11 09:54:03;;;;;;;4.77;1.97;;;26.30;36.60;;;;;;5075988;28;20159;-27
2022/01/11 09:56:29;;;;;;;3.47;2.40;;;26.30;36.60;;;;;;5071803;28;20561;-22
2022/01/11 09:58:55;;;;;;;2.57;2.17;;;26.10;36.70;;;;;;5071398;28;20199;-23
2022/01/11 10:01:21;;;;;;;3.03;2.03;;;25.90;36.80;;;;;;5071025;28;20170;-23
2022/01/11 10:04:31;;;;;;;2.33;2.00;;;25.60;37.00;;;;;;5070017;28;20180;-25
2022/01/11 10:07:00;;;;;;;3.13;2.40;;;25.30;37.30;;;;;;4988603;28;20202;-24
2022/01/11 10:09:29;;;;;;;3.27;2.03;;;25.10;37.50;;;;;;5043045;28;20613;-23
2022/01/11 10:11:56;;;;;;;2.83;2.17;;;24.90;37.70;;;;;;5070159;28;20755;-26
2022/01/11 10:14:31;;;;;;;3.10;2.00;;;24.60;37.90;;;;;;5052519;28;20197;-24
2022/01/11 10:17:19;;;;;;;3.80;2.50;;;24.40;38.10;;;;;;5068641;28;20171;-24
2022/01/11 10:20:16;;;;;;;3.17;2.30;;;24.10;38.40;;;;;;5074624;28;20608;-23
2022/01/11 10:23:08;;;;;;;3.37;2.17;;;23.90;38.70;;;;;;5074913;28;20194;-24
2022/01/11 10:25:50;;;;;;;3.70;2.30;;;23.70;39.00;;;;;;5089739;28;20197;-24
2022/01/11 10:28:15;;;;;;;3.10;2.47;;;23.50;39.10;;;;;;5076192;28;20182;-23
2022/01/11 10:30:41;;;;;;;3.00;2.30;;;23.30;39.30;;;;;;5058439;28;20228;-26
2022/01/11 10:33:08;;;;;;;3.00;2.50;;;23.20;39.50;;;;;;5075229;28;20186;-22
2022/01/11 10:35:42;;;;;;;2.90;2.07;;;23.20;39.50;;;;;;5075533;28;20181;-22
2022/01/11 10:38:13;;;;;;;3.00;2.20;;;23.20;39.50;;;;;;5058590;28;20200;-22
2022/01/11 10:40:44;;;;;;;3.23;2.20;;;23.20;39.50;;;;;;5076058;28;20333;-22
2022/01/11 10:43:16;;;;;;;3.10;2.20;;;23.30;39.40;;;;;;5058163;28;20193;-24
2022/01/11 10:45:44;;;;;;;3.67;2.00;;;23.60;39.20;;;;;;5064583;28;20186;-22
2022/01/11 10:48:15;;;;;;;3.17;2.30;;;24.00;39.00;;;;;;5095903;28;20196;-23
2022/01/11 10:50:44;;;;;;;3.20;2.37;;;24.20;38.70;;;;;;5078538;28;20188;-26
2022/01/11 10:53:28;;;;;;;2.97;2.30;;;24.40;38.60;;;;;;5078242;28;20267;-22
2022/01/11 10:55:59;;;;;;;2.73;2.00;;;24.60;38.40;;;;;;5079241;28;20180;-24
2022/01/11 10:58:28;;;;;;;2.90;2.40;;;24.90;38.20;;;;;;5078018;28;20201;-22
2022/01/11 11:00:56;;;;;;;3.40;2.10;;;25.10;38.00;;;;;;5078767;28;20180;-23
2022/01/11 11:03:23;;;;;;;2.40;2.10;;;25.20;37.80;;;;;;5077906;28;20257;-22
2022/01/11 11:05:54;;;;;;;4.47;2.03;;;25.30;37.80;;;;;;5096308;28;20165;-24
2022/01/11 11:08:30;;;;;;;2.23;2.00;;;25.20;37.80;;;;;;5078394;28;20272;-22
2022/01/11 11:10:56;;;;;;;2.27;2.07;;;25.20;37.90;;;;;;5078316;28;20185;-25
2022/01/11 11:13:27;;;;;;;4.70;2.20;;;25.40;37.80;;;;;;5078009;28;20179;-23
2022/01/11 11:15:59;;;;;;;4.67;2.23;;;25.30;37.80;;;;;;5078594;28;20168;-23
2022/01/11 11:18:34;;;;;;;4.17;2.37;;;25.10;38.00;;;;;;5078521;28;20216;-26
2022/01/11 11:21:19;;;;;;;3.10;2.23;;;24.90;38.10;;;;;;5095212;28;20165;-23
2022/01/11 11:23:46;;;;;;;2.97;2.33;;;24.80;38.40;;;;;;5077604;28;20353;-24
2022/01/11 11:26:18;;;;;;;3.37;2.23;;;24.60;38.60;;;;;;5095657;28;20160;-24
2022/01/11 11:28:44;;;;;;;4.03;2.40;;;24.50;38.90;;;;;;5095501;28;20192;-22
2022/01/11 11:31:10;;;;;;;2.90;2.17;;;24.30;39.10;;;;;;5077187;28;20172;-23
2022/01/11 11:33:41;;;;;;;4.50;2.43;;;24.10;39.40;;;;;;5060851;28;20446;-23
2022/01/11 11:36:11;;;;;;;12.97;2.70;;;23.90;39.60;;;;;;5077672;28;20179;-22
2022/01/11 11:38:43;;;;;;;3.20;2.10;;;23.70;39.90;;;;;;5094884;28;20190;-25
2022/01/11 11:41:10;;;;;;;2.93;2.33;;;23.50;40.00;;;;;;5077950;28;20302;-21
2022/01/11 11:43:43;;;;;;;3.87;2.47;;;23.40;40.20;;;;;;5094826;28;20313;-24
2022/01/11 11:46:09;;;;;;;3.47;2.30;;;23.20;40.30;;;;;;5094753;28;20171;-24
2022/01/11 11:48:34;;;;;;;4.27;2.50;;;23.10;40.40;;;;;;5094648;28;20172;-22
2022/01/11 11:51:09;;;;;;;3.43;2.17;;;23.10;40.60;;;;;;5094956;28;20197;-22
2022/01/11 11:53:38;;;;;;;4.33;2.30;;;23.10;40.50;;;;;;5060849;28;20178;-26
2022/01/11 11:56:15;;;;;;;4.77;2.57;;;22.90;40.60;;;;;;5076128;28;20175;-22
2022/01/11 11:58:52;;;;;;;5.63;2.40;;;22.70;40.80;;;;;;5094184;28;20287;-20
2022/01/11 12:01:42;;;;;;;2.70;2.40;;;22.40;41.40;;;;;;5077214;28;20167;-24
2022/01/11 12:04:13;;;;;;;6.03;2.70;;;22.00;41.40;;;;;;5077237;28;20167;-23
2022/01/11 12:06:45;;;;;;;4.73;2.57;;;21.70;41.70;;;;;;5095102;28;20695;-24
2022/01/11 12:09:18;;;;;;;5.00;2.30;;;21.50;42.00;;;;;;5077578;28;20175;-25
2022/01/11 12:11:48;;;;;;;3.03;2.10;;;21.60;42.00;;;;;;5070374;28;20179;-23
2022/01/11 12:14:32;;;;;;;3.87;2.27;;;22.30;41.50;;;;;;5086392;28;20372;-24
2022/01/11 12:17:23;;;;;;;2.83;2.10;;;23.30;40.60;;;;;;5072341;28;20534;-23
2022/01/11 12:19:51;;;;;;;3.53;2.30;;;24.10;39.70;;;;;;5073477;28;20213;-24
2022/01/11 12:22:19;;;;;;;4.20;2.10;;;24.70;39.20;;;;;;5090660;28;20170;-23
2022/01/11 12:24:48;;;;;;;3.67;2.27;;;25.40;38.60;;;;;;5090770;28;20671;-23
2022/01/11 12:27:18;;;;;;;5.33;2.50;;;25.60;38.30;;;;;;5090830;28;20162;-24
2022/01/11 12:29:57;;;;;;;3.87;2.17;;;25.60;38.50;;;;;;5072393;28;20179;-24
2022/01/11 12:32:23;;;;;;;5.30;2.43;;;25.50;38.10;;;;;;5073169;28;20269;-22
2022/01/11 12:34:49;;;;;;;3.50;2.30;;;25.30;38.30;;;;;;5074153;28;20178;-24
2022/01/11 12:37:39;;;;;;;4.33;2.70;;;25.30;38.40;;;;;;5091282;28;20182;-24
2022/01/11 12:40:13;;;;;;;2.30;1.90;;;25.20;38.40;;;;;;5073584;28;20523;-24
2022/01/11 12:42:54;;;;;;;3.40;2.30;;;25.00;38.50;;;;;;5073078;28;20167;-25
2022/01/11 12:45:54;;;;;;;4.43;2.47;;;24.80;38.80;;;;;;5073766;28;20511;-26
2022/01/11 12:48:51;;;;;;;3.70;2.53;;;24.60;39.10;;;;;;5072782;28;20216;-21
2022/01/11 12:51:28;;;;;;;4.33;2.13;;;24.20;39.30;;;;;;5072622;28;20242;-22
2022/01/11 12:54:17;;;;;;;3.10;2.30;;;23.90;39.60;;;;;;5072707;28;20286;-23
2022/01/11 12:56:46;;;;;;;4.67;2.20;;;23.60;39.90;;;;;;5091491;28;20175;-23